Yuho Maru No.3 — JD2491 — position and weather

sailwx.info

Track history (hours):
 
Tides and Currents Weather Stations Pressure Air Temp Water Temp Dewpoint Dewpoint Depression Visibility Wind Speed Wind Dir Waves Ship Positions

Yuho Maru No.3

Last reported at 2014-Jul-29 00:33 UTC. Time now 2014-Jul-29 00:45 UTC.
Position N 34°41' E 135°24'.

Length 65 m; draft 4.2 m.

Type: Tanker. MMSI: 431000336.

Date/timePositionNaut miles runAvg speedWind from/ knotsBaromVisibWave heightAir tempDewpointWater temp
2014-Jul-29 00:33N 34°41' E 135°24'0 0.2
2014-Jul-28 23:33N 34°41' E 135°23'5 4.8
2014-Jul-28 22:33N 34°38' E 135°19'0 0.1
2014-Jul-28 21:33N 34°38' E 135°19'0 0.0
2014-Jul-28 20:33N 34°38' E 135°19'0 0.0
2014-Jul-28 19:33N 34°38' E 135°19'0 0.0
2014-Jul-28 18:33N 34°38' E 135°19'0 0.0
2014-Jul-28 17:33N 34°38' E 135°19'0 0.0
2014-Jul-28 16:33N 34°38' E 135°19'0 0.0
2014-Jul-28 15:33N 34°38' E 135°19'0 0.0
2014-Jul-28 14:33N 34°38' E 135°19'0 0.0
2014-Jul-28 13:33N 34°38' E 135°19'1 0.5
2014-Jul-28 12:33N 34°38' E 135°19'1211.9
2014-Jul-28 11:33N 34°35' E 135°04'9 8.7
2014-Jul-28 10:31N 34°35' E 134°54'  
2014-Jul-25 15:32N 34°50' E 139°11'2412.1
2014-Jul-25 13:33N 35°04' E 139°34'1312.7
2014-Jul-25 12:34N 35°12' E 139°46'1312.7
2014-Jul-25 11:33N 35°25' E 139°43'1312.6
2014-Jul-25 10:33N 35°30' E 139°57'3 3.4
2014-Jul-25 09:33N 35°29' E 140°01'0 0.0
2014-Jul-25 08:33N 35°29' E 140°01'0 0.0
2014-Jul-25 07:33N 35°29' E 140°01'6 5.9
2014-Jul-25 06:33N 35°30' E 139°54'3 3.0
2014-Jul-25 05:33N 35°30' E 139°50'0 0.0
2014-Jul-25 04:33N 35°30' E 139°50'0 0.0
2014-Jul-25 03:33N 35°30' E 139°50'4 3.6
2014-Jul-25 02:34N 35°31' E 139°46'0 0.2
2014-Jul-25 01:33N 35°31' E 139°46'0 0.0
2014-Jul-25 00:33N 35°31' E 139°46'0 0.0
2014-Jul-24 23:33N 35°31' E 139°46'0 0.0
2014-Jul-24 22:33N 35°31' E 139°46'1 0.6
2014-Jul-24 21:33N 35°31' E 139°46'1211.6
2014-Jul-24 20:33N 35°34' E 139°60'6 5.8
2014-Jul-24 19:33N 35°36' E 140°06'0 0.0
2014-Jul-24 18:33N 35°36' E 140°06'0 0.0
2014-Jul-24 17:33N 35°36' E 140°06'0 0.0
2014-Jul-24 16:33N 35°36' E 140°06'0 0.0
2014-Jul-24 15:33N 35°36' E 140°06'0 0.0
2014-Jul-24 14:33N 35°36' E 140°06'0 0.0
2014-Jul-24 13:33N 35°36' E 140°06'0 0.0
2014-Jul-24 12:33N 35°36' E 140°06'0 0.0
2014-Jul-24 11:33N 35°36' E 140°06'0 0.0
2014-Jul-24 10:33N 35°36' E 140°06'0 0.0
2014-Jul-24 09:33N 35°36' E 140°06'0 0.0
2014-Jul-24 08:33N 35°36' E 140°06'0 0.0
2014-Jul-24 07:33N 35°36' E 140°06'0 0.0
2014-Jul-24 06:33N 35°36' E 140°06'0 0.0
2014-Jul-24 05:33N 35°36' E 140°06'0 0.0
2014-Jul-24 04:33N 35°36' E 140°06'0 0.0
2014-Jul-24 03:33N 35°36' E 140°06'1111.0
2014-Jul-24 02:33N 35°32' E 139°54'6 6.4
2014-Jul-24 01:33N 35°31' E 139°46'0 0.0
2014-Jul-24 00:33N 35°31' E 139°46'0 0.0
2014-Jul-23 23:33N 35°31' E 139°46'3 2.5
2014-Jul-23 22:33N 35°29' E 139°48'0 0.2
2014-Jul-23 21:33N 35°29' E 139°48'7 7.0
2014-Jul-23 20:33N 35°23' E 139°45'10 9.9
2014-Jul-23 19:33N 35°13' E 139°47'1110.9
2014-Jul-23 18:33N 35°03' E 139°40'1312.5
2014-Jul-23 17:33N 34°56' E 139°28'  
Track history (hours):
 
Tides and Currents Weather Stations Pressure Air Temp Water Temp Dewpoint Dewpoint Depression Visibility Wind Speed Wind Dir Waves Ship Positions

Yuho Maru No.3

Last reported at 2014-Jul-29 00:33 UTC. Time now 2014-Jul-29 00:45 UTC.
Position N 34°41' E 135°24'.

Length 65 m; draft 4.2 m.

Type: Tanker. MMSI: 431000336.

Date/timePositionNaut miles runAvg speedWind from/ knotsBaromVisibWave heightAir tempDewpointWater temp
2014-Jul-29 00:33N 34°41' E 135°24'0 0.2
2014-Jul-28 23:33N 34°41' E 135°23'5 4.8
2014-Jul-28 22:33N 34°38' E 135°19'0 0.1
2014-Jul-28 21:33N 34°38' E 135°19'0 0.0
2014-Jul-28 20:33N 34°38' E 135°19'0 0.0
2014-Jul-28 19:33N 34°38' E 135°19'0 0.0
2014-Jul-28 18:33N 34°38' E 135°19'0 0.0
2014-Jul-28 17:33N 34°38' E 135°19'0 0.0
2014-Jul-28 16:33N 34°38' E 135°19'0 0.0
2014-Jul-28 15:33N 34°38' E 135°19'0 0.0
2014-Jul-28 14:33N 34°38' E 135°19'0 0.0
2014-Jul-28 13:33N 34°38' E 135°19'1 0.5
2014-Jul-28 12:33N 34°38' E 135°19'1211.9
2014-Jul-28 11:33N 34°35' E 135°04'9 8.7
2014-Jul-28 10:31N 34°35' E 134°54'  
2014-Jul-25 15:32N 34°50' E 139°11'2412.1
2014-Jul-25 13:33N 35°04' E 139°34'1312.7
2014-Jul-25 12:34N 35°12' E 139°46'1312.7
2014-Jul-25 11:33N 35°25' E 139°43'1312.6
2014-Jul-25 10:33N 35°30' E 139°57'3 3.4
2014-Jul-25 09:33N 35°29' E 140°01'0 0.0
2014-Jul-25 08:33N 35°29' E 140°01'0 0.0
2014-Jul-25 07:33N 35°29' E 140°01'6 5.9
2014-Jul-25 06:33N 35°30' E 139°54'3 3.0
2014-Jul-25 05:33N 35°30' E 139°50'0 0.0
2014-Jul-25 04:33N 35°30' E 139°50'0 0.0
2014-Jul-25 03:33N 35°30' E 139°50'4 3.6
2014-Jul-25 02:34N 35°31' E 139°46'0 0.2
2014-Jul-25 01:33N 35°31' E 139°46'0 0.0
2014-Jul-25 00:33N 35°31' E 139°46'0 0.0
2014-Jul-24 23:33N 35°31' E 139°46'0 0.0
2014-Jul-24 22:33N 35°31' E 139°46'1 0.6
2014-Jul-24 21:33N 35°31' E 139°46'1211.6
2014-Jul-24 20:33N 35°34' E 139°60'6 5.8
2014-Jul-24 19:33N 35°36' E 140°06'0 0.0
2014-Jul-24 18:33N 35°36' E 140°06'0 0.0
2014-Jul-24 17:33N 35°36' E 140°06'0 0.0
2014-Jul-24 16:33N 35°36' E 140°06'0 0.0
2014-Jul-24 15:33N 35°36' E 140°06'0 0.0
2014-Jul-24 14:33N 35°36' E 140°06'0 0.0
2014-Jul-24 13:33N 35°36' E 140°06'0 0.0
2014-Jul-24 12:33N 35°36' E 140°06'0 0.0
2014-Jul-24 11:33N 35°36' E 140°06'0 0.0
2014-Jul-24 10:33N 35°36' E 140°06'0 0.0
2014-Jul-24 09:33N 35°36' E 140°06'0 0.0
2014-Jul-24 08:33N 35°36' E 140°06'0 0.0
2014-Jul-24 07:33N 35°36' E 140°06'0 0.0
2014-Jul-24 06:33N 35°36' E 140°06'0 0.0
2014-Jul-24 05:33N 35°36' E 140°06'0 0.0
2014-Jul-24 04:33N 35°36' E 140°06'0 0.0
2014-Jul-24 03:33N 35°36' E 140°06'1111.0
2014-Jul-24 02:33N 35°32' E 139°54'6 6.4
2014-Jul-24 01:33N 35°31' E 139°46'0 0.0
2014-Jul-24 00:33N 35°31' E 139°46'0 0.0
2014-Jul-23 23:33N 35°31' E 139°46'3 2.5
2014-Jul-23 22:33N 35°29' E 139°48'0 0.2
2014-Jul-23 21:33N 35°29' E 139°48'7 7.0
2014-Jul-23 20:33N 35°23' E 139°45'10 9.9
2014-Jul-23 19:33N 35°13' E 139°47'1110.9
2014-Jul-23 18:33N 35°03' E 139°40'1312.5
2014-Jul-23 17:33N 34°56' E 139°28'  

Dump ship's entire track history